Time;durP1;ratioP1;P1;durP2;ratioP2;P2;SDS_P1;SDS_P2;PMS_P1;PMS_P2;Temp;Humidity;BMP_temperature;BMP_pressure;BME280_temperature;BME280_humidity;BME280_pressure;Samples;Min_cycle;Max_cycle;Signal;HPM_P1;HPM_P2
2021/01/19 00:05:01;;;;;;;19.97;7.20;;;5.20;99.90;;;;;;6339138;22;20400;-82
2021/01/19 00:07:30;;;;;;;12.50;5.60;;;5.20;99.90;;;;;;6340509;22;20411;-82
2021/01/19 00:10:28;;;;;;;16.80;6.03;;;5.30;99.50;;;;;;6350617;22;20728;-83
2021/01/19 00:13:23;;;;;;;12.90;5.53;;;5.30;99.90;;;;;;6350584;22;20405;-83
2021/01/19 00:16:25;;;;;;;16.27;5.90;;;5.40;98.60;;;;;;6340054;22;20401;-81
2021/01/19 00:19:06;;;;;;;11.53;5.10;;;5.40;99.20;;;;;;6339155;22;20150;-82
2021/01/19 00:21:38;;;;;;;13.77;4.90;;;5.30;96.80;;;;;;6350671;22;20401;-82
2021/01/19 00:24:09;;;;;;;9.13;4.80;;;5.40;95.30;;;;;;6350811;22;20418;-82
2021/01/19 00:26:43;;;;;;;12.23;4.90;;;5.40;94.00;;;;;;6350969;22;20405;-82
2021/01/19 00:29:10;;;;;;;11.17;3.83;;;5.40;93.60;;;;;;6350592;22;21060;-82
2021/01/19 00:31:43;;;;;;;11.27;3.80;;;5.40;93.60;;;;;;6350460;22;20434;-81
2021/01/19 00:34:09;;;;;;;11.50;4.83;;;5.50;92.60;;;;;;6349259;22;20440;-82
2021/01/19 00:36:40;;;;;;;11.00;3.80;;;5.50;92.70;;;;;;6350267;22;20950;-81
2021/01/19 00:39:19;;;;;;;;;;;;;;;;;;;;;
2021/01/19 00:41:51;;;;;;;9.47;4.10;;;5.60;88.30;;;;;;6350285;22;20762;-81
2021/01/19 00:44:19;;;;;;;15.57;4.10;;;5.70;83.80;;;;;;6342154;22;20403;-81
2021/01/19 00:46:51;;;;;;;4.10;2.10;;;5.70;82.00;;;;;;6339457;22;20404;-81
2021/01/19 00:49:19;;;;;;;8.80;3.80;;;5.70;81.90;;;;;;6338084;22;20401;-83
2021/01/19 00:52:03;;;;;;;;;;;;;;;;;;;;;
2021/01/19 00:54:34;;;;;;;10.93;3.30;;;5.60;83.90;;;;;;6350240;22;20428;-81
2021/01/19 00:57:03;;;;;;;8.30;3.33;;;5.60;83.20;;;;;;6339555;22;20401;-82
2021/01/19 00:59:39;;;;;;;7.27;3.00;;;5.60;81.60;;;;;;6339577;22;20401;-82
2021/01/19 01:02:09;;;;;;;5.68;2.67;;;5.70;76.90;;;;;;6339493;22;20400;-81
2021/01/19 01:04:58;;;;;;;9.20;3.13;;;5.60;79.70;;;;;;6338425;22;20522;-82
2021/01/19 01:07:34;;;;;;;8.80;3.13;;;5.70;74.30;;;;;;6220017;22;20775;-82
2021/01/19 01:10:11;;;;;;;12.50;2.67;;;5.80;72.70;;;;;;6350028;22;20397;-83
2021/01/19 01:12:55;;;;;;;;;;;;;;;;;;;;;
2021/01/19 01:18:49;;;;;;;;;;;;;;;;;;;;;
2021/01/19 01:21:27;;;;;;;12.63;3.33;;;5.60;75.70;;;;;;6336677;22;20470;-82
2021/01/19 01:24:06;;;;;;;8.13;3.40;;;5.60;76.10;;;;;;6350294;22;20443;-82
2021/01/19 01:26:46;;;;;;;;;;;;;;;;;;;;;
2021/01/19 01:29:48;;;;;;;14.03;4.03;;;5.50;76.70;;;;;;6317415;22;20447;-82
2021/01/19 01:35:43;;;;;;;;;;;;;;;;;;;;;
2021/01/19 01:38:26;;;;;;;9.43;2.57;;;5.40;75.40;;;;;;6350125;22;20158;-82
2021/01/19 01:41:21;;;;;;;8.43;2.63;;;5.40;74.90;;;;;;6339045;22;20405;-83
2021/01/19 01:43:58;;;;;;;11.10;3.00;;;5.40;75.30;;;;;;6350058;22;20422;-82
2021/01/19 01:46:49;;;;;;;;;;;;;;;;;;;;;
2021/01/19 01:49:56;;;;;;;13.23;3.37;;;5.40;74.00;;;;;;6337642;22;20396;-83
2021/01/19 01:52:55;;;;;;;7.20;3.33;;;5.40;72.80;;;;;;6339276;22;20397;-83
2021/01/19 01:56:03;;;;;;;11.63;2.57;;;5.40;67.80;;;;;;6349985;22;20949;-81
2021/01/19 01:59:12;;;;;;;;;;;;;;;;;;;;;
2021/01/19 02:01:49;;;;;;;5.50;2.17;;;5.60;58.20;;;;;;6338908;22;20412;-83
2021/01/19 02:04:33;;;;;;;8.03;3.27;;;5.50;59.70;;;;;;6337832;22;20432;-84
2021/01/19 02:10:28;;;;;;;5.63;2.27;;;5.30;57.90;;;;;;6264940;22;20178;-84
2021/01/19 02:13:06;;;;;;;11.03;3.50;;;5.30;61.50;;;;;;6349568;22;20497;-83
2021/01/19 02:16:19;;;;;;;;;;;;;;;;;;;;;
2021/01/19 02:26:30;;;;;;;7.13;2.17;;;5.10;58.10;;;;;;6186906;23;20450;-83
2021/01/19 02:32:58;;;;;;;6.78;1.77;;;4.90;62.00;;;;;;6043368;23;20446;-82
2021/01/19 02:35:59;;;;;;;;;;;;;;;;;;;;;
2021/01/19 02:38:57;;;;;;;9.37;2.17;;;4.80;61.30;;;;;;5998636;23;20923;-83
2021/01/19 02:50:34;;;;;;;;;;;;;;;;;;;;;
2021/01/19 03:06:02;;;;;;;;;;;;;;;;;;;;;
2021/01/19 03:12:19;;;;;;;;;;;;;;;;;;;;;
2021/01/19 03:29:07;;;;;;;;;;;;;;;;;;;;;
2021/01/19 04:30:21;;;;;;;;;;;;;;;;;;;;;
2021/01/19 04:33:06;;;;;;;11.97;3.60;;;5.00;61.40;;;;;;6064365;23;20455;-83
2021/01/19 04:35:35;;;;;;;12.93;3.70;;;5.10;62.00;;;;;;6088317;23;20512;-82
2021/01/19 04:38:13;;;;;;;9.70;4.20;;;5.10;63.80;;;;;;6154097;23;20402;-81
2021/01/19 04:40:40;;;;;;;19.00;5.93;;;5.10;67.20;;;;;;6154337;23;20742;-82
2021/01/19 04:43:21;;;;;;;11.17;5.60;;;5.00;67.00;;;;;;6156467;23;20434;-82
2021/01/19 04:46:00;;;;;;;10.23;5.10;;;5.00;71.40;;;;;;6194028;23;20456;-81
2021/01/19 04:48:30;;;;;;;12.97;5.37;;;4.90;72.50;;;;;;6192456;23;20413;-82
2021/01/19 04:51:00;;;;;;;11.03;4.80;;;4.80;73.50;;;;;;6183894;23;20404;-82
2021/01/19 04:53:39;;;;;;;10.47;4.50;;;4.90;73.60;;;;;;6193589;23;20984;-82
2021/01/19 04:56:38;;;;;;;;;;;;;;;;;;;;;
2021/01/19 04:59:25;;;;;;;;;;;;;;;;;;;;;
2021/01/19 05:02:56;;;;;;;;;;;;;;;;;;;;;
2021/01/19 05:13:13;;;;;;;;;;;;;;;;;;;;;
2021/01/19 05:16:47;;;;;;;;;;;;;;;;;;;;;
2021/01/19 05:20:01;;;;;;;;;;;;;;;;;;;;;
2021/01/19 05:35:20;;;;;;;11.80;2.80;;;5.20;92.00;;;;;;6010642;23;20269;-82
2021/01/19 05:37:57;;;;;;;12.05;3.03;;;5.20;95.50;;;;;;6280399;22;20417;-81
2021/01/19 05:40:24;;;;;;;8.67;3.60;;;5.20;98.10;;;;;;6339287;22;20154;-81
2021/01/19 05:42:50;;;;;;;6.37;2.97;;;5.20;99.90;;;;;;6349563;22;20904;-81
2021/01/19 05:45:17;;;;;;;7.90;3.27;;;5.30;99.90;;;;;;6339256;22;20400;-82
2021/01/19 05:47:48;;;;;;;8.83;3.77;;;5.20;99.90;;;;;;6338021;22;20397;-82
2021/01/19 05:50:16;;;;;;;5.53;3.73;;;5.20;99.90;;;;;;6338910;22;20393;-82
2021/01/19 05:52:56;;;;;;;6.80;3.60;;;5.30;99.90;;;;;;6339251;22;20934;-82
2021/01/19 05:55:31;;;;;;;6.30;2.87;;;5.40;99.90;;;;;;6339435;22;20501;-81
2021/01/19 05:57:59;;;;;;;5.07;4.30;;;5.60;99.90;;;;;;6349445;22;20432;-81
2021/01/19 06:00:28;;;;;;;6.73;2.70;;;5.70;99.90;;;;;;6349515;22;20934;-81
2021/01/19 06:02:56;;;;;;;5.37;3.00;;;5.70;99.90;;;;;;6337477;22;20412;-82
2021/01/19 06:05:23;;;;;;;7.23;3.03;;;5.60;99.90;;;;;;6349911;22;20508;-83
2021/01/19 06:07:56;;;;;;;6.90;5.07;;;5.70;99.90;;;;;;6349536;22;20730;-82
2021/01/19 06:10:30;;;;;;;6.20;5.43;;;5.60;99.90;;;;;;6338978;22;20397;-82
2021/01/19 06:13:19;;;;;;;8.10;5.83;;;5.70;99.90;;;;;;6349765;22;20397;-83
2021/01/19 06:19:11;;;;;;;;;;;;;;;;;;;;;
2021/01/19 06:25:29;;;;;;;9.05;3.45;;;5.70;99.90;;;;;;6312989;22;20711;-82
2021/01/19 06:28:25;;;;;;;7.57;3.30;;;5.70;99.90;;;;;;6324947;22;20169;-82
2021/01/19 06:31:06;;;;;;;;;;;;;;;;;;;;;
2021/01/19 06:33:33;;;;;;;3.50;2.10;;;5.80;99.90;;;;;;6316320;22;20450;-82
2021/01/19 06:36:04;;;;;;;5.33;3.13;;;5.80;99.90;;;;;;6307512;22;20179;-83
2021/01/19 06:38:38;;;;;;;7.07;3.77;;;5.80;99.90;;;;;;6317815;22;20410;-81
2021/01/19 06:41:21;;;;;;;4.37;3.70;;;5.80;99.90;;;;;;6307742;22;20411;-82
2021/01/19 06:43:59;;;;;;;4.30;3.90;;;5.80;99.90;;;;;;6317318;22;20405;-82
2021/01/19 06:46:28;;;;;;;8.70;3.80;;;5.80;99.90;;;;;;6317658;22;20412;-82
2021/01/19 06:49:01;;;;;;;4.10;2.80;;;5.80;99.90;;;;;;6306801;22;20401;-81
2021/01/19 06:51:28;;;;;;;4.90;2.60;;;5.90;99.90;;;;;;6317822;22;20398;-82
2021/01/19 06:54:05;;;;;;;4.20;3.10;;;5.90;99.90;;;;;;6307664;22;20413;-82
2021/01/19 06:56:37;;;;;;;3.60;2.45;;;5.90;99.90;;;;;;6317863;22;20480;-81
2021/01/19 06:59:07;;;;;;;3.55;2.55;;;6.00;99.90;;;;;;6307071;22;20161;-80
2021/01/19 07:01:43;;;;;;;4.23;2.77;;;6.00;99.90;;;;;;6307741;22;20152;-80
2021/01/19 07:04:22;;;;;;;4.77;3.00;;;5.90;99.90;;;;;;6305796;22;20485;-80
2021/01/19 07:07:07;;;;;;;4.33;3.30;;;5.90;99.90;;;;;;6307279;22;20394;-81
2021/01/19 07:10:04;;;;;;;3.77;3.17;;;5.80;99.90;;;;;;6307427;22;20489;-80
2021/01/19 07:12:59;;;;;;;4.93;3.50;;;5.80;99.90;;;;;;6298835;22;20735;-82
2021/01/19 07:16:03;;;;;;;4.83;4.27;;;5.80;99.90;;;;;;6299450;22;20440;-83
2021/01/19 07:19:03;;;;;;;5.43;4.93;;;5.90;99.90;;;;;;6291329;22;20441;-80
2021/01/19 07:22:04;;;;;;;3.90;3.50;;;5.80;99.90;;;;;;6318020;22;20441;-80
2021/01/19 07:24:37;;;;;;;4.03;3.13;;;5.80;99.90;;;;;;6290587;22;20413;-81
2021/01/19 07:27:09;;;;;;;5.57;4.13;;;5.80;99.90;;;;;;6307598;22;20591;-81
2021/01/19 07:29:38;;;;;;;5.03;4.57;;;5.80;99.90;;;;;;6307138;22;20412;-81
2021/01/19 07:32:13;;;;;;;6.87;6.20;;;5.80;99.90;;;;;;6332490;22;20760;-82
2021/01/19 07:34:42;;;;;;;5.90;5.40;;;5.80;99.90;;;;;;6337052;22;20435;-81
2021/01/19 07:37:08;;;;;;;4.40;4.00;;;5.80;99.90;;;;;;6338682;22;20525;-81
2021/01/19 07:39:36;;;;;;;6.03;5.53;;;5.90;99.90;;;;;;6338756;22;20404;-82
2021/01/19 07:42:14;;;;;;;7.13;6.17;;;5.80;99.90;;;;;;6349269;22;20404;-82
2021/01/19 07:44:42;;;;;;;6.10;5.60;;;5.70;99.90;;;;;;6349276;22;20487;-81
2021/01/19 07:47:36;;;;;;;6.20;5.70;;;5.70;99.90;;;;;;6349094;22;20404;-82
2021/01/19 07:50:11;;;;;;;6.80;6.30;;;5.80;99.90;;;;;;6331619;22;20408;-80
2021/01/19 07:52:40;;;;;;;7.27;6.77;;;5.70;99.90;;;;;;6338719;22;20393;-81
2021/01/19 07:55:21;;;;;;;8.00;7.50;;;5.80;99.90;;;;;;6349167;22;20424;-81
2021/01/19 07:57:48;;;;;;;6.70;6.20;;;5.70;99.90;;;;;;6340203;22;20393;-80
2021/01/19 08:00:22;;;;;;;6.93;6.23;;;5.70;99.90;;;;;;6340495;22;20393;-80
2021/01/19 08:02:48;;;;;;;10.80;10.10;;;5.70;99.90;;;;;;6338539;22;20884;-82
2021/01/19 08:05:26;;;;;;;8.60;7.90;;;5.70;99.90;;;;;;6340203;22;20237;-82
2021/01/19 08:07:53;;;;;;;10.23;9.33;;;5.70;99.90;;;;;;6340270;22;20393;-82
2021/01/19 08:10:21;;;;;;;12.17;11.37;;;5.70;99.90;;;;;;6340431;22;20425;-82
2021/01/19 08:12:50;;;;;;;10.50;9.90;;;5.70;99.90;;;;;;6350902;22;20457;-80
2021/01/19 08:15:22;;;;;;;12.73;12.03;;;5.80;99.90;;;;;;6340228;22;20428;-80
2021/01/19 08:17:53;;;;;;;10.80;10.20;;;5.60;99.90;;;;;;6336290;22;20815;-79
2021/01/19 08:20:28;;;;;;;18.77;17.80;;;5.70;99.90;;;;;;6337178;22;20479;-79
2021/01/19 08:22:57;;;;;;;25.10;23.90;;;5.70;99.90;;;;;;6338281;22;20480;-83
2021/01/19 08:25:28;;;;;;;23.17;22.07;;;5.60;99.90;;;;;;6338139;22;20393;-80
2021/01/19 08:27:58;;;;;;;29.13;27.33;;;5.70;99.90;;;;;;6337880;22;20397;-81
2021/01/19 08:30:26;;;;;;;39.63;37.83;;;5.70;99.90;;;;;;6338187;22;20393;-80
2021/01/19 08:32:54;;;;;;;41.47;39.87;;;5.70;99.90;;;;;;6346537;22;20509;-80
2021/01/19 08:35:26;;;;;;;46.60;44.85;;;5.70;99.90;;;;;;6337734;22;20478;-81
2021/01/19 08:37:55;;;;;;;33.20;31.87;;;5.70;99.90;;;;;;6348474;22;20215;-81
2021/01/19 08:40:25;;;;;;;40.57;38.87;;;5.80;99.90;;;;;;6337415;22;20919;-80
2021/01/19 08:42:52;;;;;;;30.30;28.70;;;5.70;99.90;;;;;;6348469;22;20416;-81
2021/01/19 08:45:28;;;;;;;51.63;49.43;;;5.80;99.90;;;;;;6337935;22;20890;-80
2021/01/19 08:47:57;;;;;;;66.17;63.40;;;6.00;99.90;;;;;;6336664;22;20454;-80
2021/01/19 08:50:24;;;;;;;62.97;60.20;;;6.00;99.90;;;;;;6348233;22;20940;-80
2021/01/19 08:52:54;;;;;;;63.37;60.37;;;6.00;99.90;;;;;;6337925;22;20436;-80
2021/01/19 08:55:21;;;;;;;42.00;40.25;;;6.10;99.90;;;;;;6348687;22;20428;-81
2021/01/19 08:57:57;;;;;;;36.00;34.50;;;6.20;99.90;;;;;;6338056;22;20151;-81
2021/01/19 09:00:34;;;;;;;26.97;25.77;;;6.30;99.90;;;;;;6337600;22;20435;-83
2021/01/19 09:03:09;;;;;;;27.40;26.20;;;6.20;99.90;;;;;;6336642;22;20392;-81
2021/01/19 09:05:45;;;;;;;25.90;24.67;;;6.20;99.90;;;;;;6348339;22;20397;-82
2021/01/19 09:08:15;;;;;;;29.60;28.07;;;6.30;99.90;;;;;;6347717;22;20480;-81
2021/01/19 09:10:46;;;;;;;31.77;30.10;;;6.20;99.90;;;;;;6337981;22;20411;-81
2021/01/19 09:13:13;;;;;;;32.80;31.30;;;6.30;99.90;;;;;;6338753;22;20713;-81
2021/01/19 09:15:40;;;;;;;34.17;32.67;;;6.30;99.90;;;;;;6339922;22;20468;-80
2021/01/19 09:21:14;;;;;;;32.20;30.87;;;6.30;99.90;;;;;;6328558;22;20167;-82
2021/01/19 09:23:42;;;;;;;43.40;41.40;;;6.30;99.90;;;;;;6340009;22;20425;-81
2021/01/19 09:32:46;;;;;;;;;;;;;;;;;;;;;
2021/01/19 09:35:19;;;;;;;19.73;18.73;;;6.20;99.90;;;;;;6310048;22;20459;-82
2021/01/19 09:37:56;;;;;;;;;;;;;;;;;;;;;
2021/01/19 09:40:57;;;;;;;19.87;18.70;;;6.30;99.90;;;;;;6269534;22;20404;-83
2021/01/19 09:43:55;;;;;;;16.17;15.20;;;6.30;99.90;;;;;;6338107;22;20408;-83
2021/01/19 09:47:02;;;;;;;;;;;;;;;;;;;;;
2021/01/19 09:50:02;;;;;;;;;;;;;;;;;;;;;
2021/01/19 10:00:58;;;;;;;25.57;24.40;;;6.30;99.90;;;;;;6349542;22;20397;-81
2021/01/19 10:03:37;;;;;;;19.02;17.95;;;6.40;99.90;;;;;;6347794;22;20397;-82
2021/01/19 10:06:21;;;;;;;28.87;27.57;;;6.40;99.90;;;;;;6338955;22;20162;-82
2021/01/19 10:09:42;;;;;;;31.57;30.27;;;6.30;99.90;;;;;;6349293;22;20450;-82
2021/01/19 10:12:17;;;;;;;35.50;33.90;;;6.30;99.90;;;;;;6153015;23;20477;-82
2021/01/19 10:15:15;;;;;;;36.53;34.80;;;6.30;99.90;;;;;;6153099;23;20778;-81
2021/01/19 10:18:11;;;;;;;36.17;34.37;;;6.40;99.90;;;;;;6030892;23;20414;-82
2021/01/19 10:21:35;;;;;;;;;;;;;;;;;;;;;
2021/01/19 10:24:35;;;;;;;25.10;24.00;;;6.30;99.90;;;;;;5983415;23;20444;-82
2021/01/19 10:37:01;;;;;;;26.63;25.43;;;6.40;99.90;;;;;;6079488;23;20950;-83
2021/01/19 10:40:00;;;;;;;21.70;20.50;;;6.50;99.90;;;;;;6133418;23;20498;-83
2021/01/19 10:52:22;;;;;;;;;;;;;;;;;;;;;
2021/01/19 11:01:27;;;;;;;7.27;6.07;;;6.80;99.90;;;;;;5994382;23;20408;-82
2021/01/19 11:03:56;;;;;;;7.77;7.27;;;6.80;99.90;;;;;;6065390;23;20503;-81
2021/01/19 11:19:56;;;;;;;7.77;5.17;;;7.10;99.90;;;;;;5997019;23;20421;-82
2021/01/19 11:22:45;;;;;;;7.47;6.88;;;7.10;99.90;;;;;;5981567;23;20500;-81
2021/01/19 11:25:17;;;;;;;5.30;4.83;;;7.20;99.90;;;;;;6118251;23;20447;-82
2021/01/19 11:27:59;;;;;;;4.50;4.10;;;7.20;99.90;;;;;;6237170;22;20421;-82
2021/01/19 11:30:29;;;;;;;5.23;4.70;;;7.20;99.90;;;;;;6316146;22;20444;-82
2021/01/19 11:33:01;;;;;;;4.88;3.00;;;7.20;99.90;;;;;;6331773;22;20424;-82
2021/01/19 11:35:35;;;;;;;4.20;3.40;;;7.30;99.90;;;;;;6338293;22;20432;-82
2021/01/19 11:38:07;;;;;;;4.03;3.27;;;7.40;99.90;;;;;;6339120;22;20167;-82
2021/01/19 11:40:39;;;;;;;3.73;2.67;;;7.40;99.90;;;;;;6338552;22;20470;-81
2021/01/19 11:43:12;;;;;;;4.10;3.23;;;7.50;99.90;;;;;;6349478;22;20922;-81
2021/01/19 11:45:40;;;;;;;4.77;3.57;;;7.50;99.90;;;;;;6349230;22;20776;-82
2021/01/19 11:48:07;;;;;;;4.70;3.70;;;7.50;99.90;;;;;;6347639;22;20433;-81
2021/01/19 11:50:54;;;;;;;4.70;4.30;;;7.50;99.90;;;;;;6338841;22;20392;-82
2021/01/19 11:53:32;;;;;;;4.50;3.83;;;7.50;99.90;;;;;;6326740;22;20428;-82
2021/01/19 11:56:25;;;;;;;5.30;4.80;;;7.40;99.90;;;;;;6336787;22;20999;-83
2021/01/19 11:59:04;;;;;;;;;;;;;;;;;;;;;
2021/01/19 12:04:33;;;;;;;5.93;5.43;;;7.50;99.90;;;;;;6336883;22;20405;-83
2021/01/19 12:07:05;;;;;;;6.40;5.80;;;7.60;99.90;;;;;;6338606;22;20408;-83
2021/01/19 12:10:11;;;;;;;;;;;;;;;;;;;;;
2021/01/19 12:13:13;;;;;;;;;;;;;;;;;;;;;
2021/01/19 12:15:44;;;;;;;5.87;5.37;;;7.70;99.90;;;;;;6262855;22;20816;-82
2021/01/19 12:18:43;;;;;;;;;;;;;;;;;;;;;
2021/01/19 12:24:38;;;;;;;5.40;4.90;;;7.70;99.90;;;;;;6058737;23;20425;-82
2021/01/19 12:28:06;;;;;;;;;;;;;;;;;;;;;
2021/01/19 12:31:01;;;;;;;;;;;;;;;;;;;;;
2021/01/19 12:33:42;;;;;;;4.13;2.95;;;7.80;99.90;;;;;;6315484;22;20972;-83
2021/01/19 12:39:31;;;;;;;;;;;;;;;;;;;;;
2021/01/19 12:45:44;;;;;;;5.83;4.53;;;8.00;99.90;;;;;;6131510;23;20514;-83
2021/01/19 12:48:25;;;;;;;4.57;3.70;;;7.90;99.90;;;;;;6113804;23;20493;-83
2021/01/19 12:54:42;;;;;;;;;;;;;;;;;;;;;
2021/01/19 14:30:55;;;;;;;5.90;4.40;;;8.70;99.90;;;;;;6006570;23;20178;-82
2021/01/19 14:34:14;;;;;;;;;;;;;;;;;;;;;
2021/01/19 14:36:56;;;;;;;;;;;;;;;;;;;;;
2021/01/19 15:56:37;;;;;;;;;;;;;;;;;;;;;
2021/01/19 16:44:50;;;;;;;10.93;9.83;;;7.70;99.90;;;;;;5832240;24;20427;-84
2021/01/19 16:54:18;;;;;;;9.30;8.50;;;7.70;99.90;;;;;;5857310;24;20252;-83
